createdAt,value
2023-05-05T00:02:17.943Z,15.87
2023-05-05T00:04:46.062Z,15.87
2023-05-05T00:07:13.850Z,15.84
2023-05-05T00:09:41.617Z,15.82
2023-05-05T00:12:10.990Z,15.84
2023-05-05T00:14:38.814Z,15.82
2023-05-05T00:17:06.641Z,15.80
2023-05-05T00:19:34.408Z,15.78
2023-05-05T00:22:02.190Z,15.74
2023-05-05T00:24:29.893Z,15.71
2023-05-05T00:26:57.665Z,15.69
2023-05-05T00:29:26.797Z,15.68
2023-05-05T00:31:54.683Z,15.65
2023-05-05T00:34:22.441Z,15.63
2023-05-05T00:36:50.532Z,15.60
2023-05-05T00:39:18.285Z,15.59
2023-05-05T00:41:46.077Z,15.51
2023-05-05T00:44:13.799Z,15.55
2023-05-05T00:46:43.273Z,15.53
2023-05-05T00:49:12.004Z,15.49
2023-05-05T00:51:39.788Z,15.44
2023-05-05T00:54:07.553Z,15.40
2023-05-05T00:56:35.489Z,15.32
2023-05-05T00:59:03.826Z,15.29
2023-05-05T01:01:31.696Z,15.27
2023-05-05T01:04:01.535Z,15.23
2023-05-05T01:06:43.312Z,15.21
2023-05-05T01:09:17.749Z,15.17
2023-05-05T01:11:50.620Z,15.15
2023-05-05T01:14:21.060Z,15.10
2023-05-05T01:16:55.830Z,15.03
2023-05-05T01:19:41.570Z,15.00
2023-05-05T01:22:10.434Z,14.95
2023-05-05T01:24:51.223Z,15.03
2023-05-05T01:27:35.186Z,15.04
2023-05-05T01:30:16.869Z,14.98
2023-05-05T01:32:50.215Z,14.94
2023-05-05T01:35:22.029Z,14.90
2023-05-05T01:37:52.503Z,14.85
2023-05-05T01:40:28.401Z,14.82
2023-05-05T01:42:56.815Z,14.81
2023-05-05T01:45:27.823Z,14.81
2023-05-05T01:47:57.600Z,14.82
2023-05-05T01:50:25.967Z,14.61
2023-05-05T01:52:54.564Z,14.82
2023-05-05T01:55:26.270Z,14.82
2023-05-05T01:57:54.804Z,14.81
2023-05-05T02:00:25.098Z,14.81
2023-05-05T02:02:53.187Z,14.77
2023-05-05T02:05:23.328Z,14.76
2023-05-05T02:07:52.062Z,14.74
2023-05-05T02:10:20.147Z,14.73
2023-05-05T02:12:48.763Z,14.72
2023-05-05T02:15:17.073Z,14.71
2023-05-05T02:17:44.920Z,14.65
2023-05-05T02:20:14.021Z,14.69
2023-05-05T02:22:43.269Z,14.66
2023-05-05T02:25:11.092Z,14.63
2023-05-05T02:27:41.849Z,14.58
2023-05-05T02:30:12.073Z,14.56
2023-05-05T02:32:42.680Z,14.53
2023-05-05T02:35:13.414Z,14.50
2023-05-05T02:37:43.311Z,14.45
2023-05-05T02:40:11.822Z,14.41
2023-05-05T02:42:41.967Z,14.38
2023-05-05T02:45:13.503Z,14.37
2023-05-05T02:47:41.346Z,14.37
2023-05-05T02:50:10.583Z,14.36
2023-05-05T02:52:38.651Z,14.35
2023-05-05T02:55:08.712Z,14.29
2023-05-05T02:57:39.722Z,14.34
2023-05-05T03:00:11.259Z,14.33
2023-05-05T03:02:46.006Z,14.31
2023-05-05T03:05:18.918Z,14.30
2023-05-05T03:07:56.253Z,14.29
2023-05-05T03:10:29.442Z,14.28
2023-05-05T03:13:00.283Z,14.25
2023-05-05T03:15:33.309Z,14.24
2023-05-05T03:18:02.175Z,14.21
2023-05-05T03:20:30.343Z,14.18
2023-05-05T03:22:58.480Z,14.18
2023-05-05T03:25:45.937Z,14.20
2023-05-05T03:28:15.193Z,14.22
2023-05-05T03:30:43.353Z,14.26
2023-05-05T03:33:11.569Z,14.33
2023-05-05T03:35:39.335Z,14.34
2023-05-05T03:38:07.061Z,14.33
2023-05-05T03:40:43.505Z,14.31
2023-05-05T03:43:13.810Z,14.28
2023-05-05T03:45:41.606Z,14.27
2023-05-05T03:48:10.102Z,14.23
2023-05-05T03:50:37.918Z,14.19
2023-05-05T03:53:05.820Z,14.24
2023-05-05T03:55:33.698Z,14.23
2023-05-05T03:58:01.477Z,14.22
2023-05-05T04:00:30.659Z,14.27
2023-05-05T04:02:58.481Z,14.25
2023-05-05T04:05:26.867Z,14.25
2023-05-05T04:07:54.616Z,14.22
2023-05-05T04:10:22.551Z,14.27
2023-05-05T04:12:50.336Z,14.34
2023-05-05T04:15:18.132Z,14.38
2023-05-05T04:17:47.380Z,14.49
2023-05-05T04:20:15.302Z,14.57
2023-05-05T04:22:43.029Z,14.58
2023-05-05T04:25:11.281Z,14.56
2023-05-05T04:27:39.050Z,14.65
2023-05-05T04:30:08.065Z,14.70
2023-05-05T04:32:36.241Z,14.72
2023-05-05T04:35:05.793Z,14.73
2023-05-05T04:37:33.575Z,14.70
2023-05-05T04:40:01.344Z,14.70
2023-05-05T04:42:29.111Z,14.78
2023-05-05T04:44:56.869Z,14.81
2023-05-05T04:47:24.897Z,14.93
2023-05-05T04:49:53.030Z,14.96
2023-05-05T04:52:22.166Z,14.97
2023-05-05T04:54:49.951Z,14.96
2023-05-05T04:57:17.721Z,14.97
2023-05-05T04:59:45.535Z,14.99
2023-05-05T05:02:13.502Z,14.99
2023-05-05T05:04:41.755Z,15.01
2023-05-05T05:07:09.586Z,14.93
2023-05-05T05:09:38.780Z,15.08
2023-05-05T05:12:07.993Z,15.12
2023-05-05T05:14:37.881Z,15.16
2023-05-05T05:17:05.708Z,15.21
2023-05-05T05:19:33.534Z,15.29
2023-05-05T05:22:01.396Z,15.37
2023-05-05T05:24:29.849Z,15.44
2023-05-05T05:26:59.017Z,15.52
2023-05-05T05:29:27.116Z,15.61
2023-05-05T05:31:54.970Z,15.71
2023-05-05T05:34:22.762Z,15.82
2023-05-05T05:36:50.804Z,15.91
2023-05-05T05:39:18.577Z,16.01
2023-05-05T05:41:46.385Z,16.12
2023-05-05T05:44:15.624Z,16.21
2023-05-05T05:46:43.502Z,16.26
2023-05-05T05:49:11.371Z,16.34
2023-05-05T05:51:39.251Z,16.39
2023-05-05T05:54:07.087Z,16.49
2023-05-05T05:56:34.916Z,16.56
2023-05-05T05:59:04.570Z,16.66
2023-05-05T06:01:33.816Z,16.80
2023-05-05T06:04:01.804Z,17.01
2023-05-05T06:06:29.680Z,17.13
2023-05-05T06:08:57.438Z,17.24
2023-05-05T06:11:25.350Z,17.38
2023-05-05T06:13:55.502Z,17.47
2023-05-05T06:16:23.262Z,17.47
2023-05-05T06:18:52.484Z,17.46
2023-05-05T06:21:20.744Z,17.42
2023-05-05T06:23:48.707Z,17.38
2023-05-05T06:26:16.903Z,17.45
2023-05-05T06:28:44.763Z,17.70
2023-05-05T06:31:12.962Z,17.92
2023-05-05T06:33:40.860Z,18.10
2023-05-05T06:36:10.463Z,18.19
2023-05-05T06:38:38.360Z,18.30
2023-05-05T06:41:06.672Z,18.46
2023-05-05T06:43:34.532Z,18.55
2023-05-05T06:46:02.588Z,18.65
2023-05-05T06:48:30.427Z,18.74
2023-05-05T06:50:58.233Z,18.76
2023-05-05T06:53:27.401Z,18.75
2023-05-05T06:55:55.458Z,18.72
2023-05-05T06:58:23.217Z,18.83
2023-05-05T07:00:51.156Z,18.86
2023-05-05T07:03:19.160Z,18.77
2023-05-05T07:05:47.080Z,18.71
2023-05-05T07:08:14.855Z,18.52
2023-05-05T07:10:44.377Z,18.34
2023-05-05T07:13:12.299Z,18.27
2023-05-05T07:15:46.420Z,18.37
2023-05-05T07:18:14.547Z,18.37
2023-05-05T07:20:42.541Z,18.50
2023-05-05T07:23:11.272Z,18.65
2023-05-05T07:25:39.303Z,18.85
2023-05-05T07:28:08.484Z,19.02
2023-05-05T07:30:36.357Z,19.17
2023-05-05T07:33:04.732Z,19.23
2023-05-05T07:35:32.544Z,19.31
2023-05-05T07:38:00.548Z,19.24
2023-05-05T07:40:28.402Z,19.22
2023-05-05T07:42:56.319Z,19.40
2023-05-05T07:45:25.576Z,19.44
2023-05-05T07:47:53.460Z,19.47
2023-05-05T07:50:21.287Z,19.41
2023-05-05T07:52:53.921Z,19.40
2023-05-05T07:55:30.210Z,19.32
2023-05-05T07:57:57.963Z,19.32
2023-05-05T08:00:27.387Z,19.38
2023-05-05T08:02:55.414Z,19.52
2023-05-05T08:05:23.634Z,19.61
2023-05-05T08:07:51.423Z,19.56
2023-05-05T08:10:19.228Z,19.67
2023-05-05T08:12:47.133Z,19.84
2023-05-05T08:15:15.085Z,19.76
2023-05-05T08:17:48.711Z,19.93
2023-05-05T08:20:16.748Z,20.24
2023-05-05T08:22:44.546Z,20.39
2023-05-05T08:25:13.105Z,20.56
2023-05-05T08:27:41.775Z,20.70
2023-05-05T08:30:10.831Z,20.92
2023-05-05T08:32:39.161Z,20.85
2023-05-05T08:35:09.268Z,20.77
2023-05-05T08:37:37.348Z,20.64
2023-05-05T08:40:05.938Z,21.05
2023-05-05T08:42:38.403Z,21.13
2023-05-05T08:45:08.528Z,20.90
2023-05-05T08:47:37.101Z,20.89
2023-05-05T08:50:06.822Z,20.92
2023-05-05T08:52:40.881Z,21.07
2023-05-05T08:55:15.518Z,21.26
2023-05-05T08:57:47.838Z,21.47
2023-05-05T09:00:16.449Z,21.37
2023-05-05T09:02:44.813Z,21.46
2023-05-05T09:05:12.921Z,21.45
2023-05-05T09:07:43.765Z,21.71
2023-05-05T09:10:13.071Z,22.10
2023-05-05T09:12:41.662Z,22.23
2023-05-05T09:15:11.615Z,21.94
2023-05-05T09:17:40.062Z,22.05
2023-05-05T09:20:09.419Z,22.07
2023-05-05T09:22:38.512Z,22.21
2023-05-05T09:25:10.152Z,22.21
2023-05-05T09:27:38.646Z,22.47
2023-05-05T09:30:10.432Z,22.70
2023-05-05T09:32:45.936Z,22.71
2023-05-05T09:35:13.939Z,22.90
2023-05-05T09:37:41.920Z,23.13
2023-05-05T09:40:14.191Z,23.19
2023-05-05T09:42:42.334Z,23.26
2023-05-05T09:45:27.534Z,23.27
2023-05-05T09:47:59.530Z,23.32
2023-05-05T09:50:30.517Z,23.49
2023-05-05T09:52:59.902Z,23.42
2023-05-05T09:55:29.306Z,22.83
2023-05-05T09:57:57.154Z,23.04
2023-05-05T10:00:38.872Z,22.78
2023-05-05T10:03:06.903Z,22.78
2023-05-05T10:05:34.717Z,22.81
2023-05-05T10:08:13.737Z,22.80
2023-05-05T10:10:48.251Z,23.09
2023-05-05T10:13:16.868Z,23.72
2023-05-05T10:15:46.369Z,24.09
2023-05-05T10:18:16.094Z,23.86
2023-05-05T10:20:44.428Z,23.50
2023-05-05T10:23:16.101Z,22.73
2023-05-05T10:25:52.065Z,22.44
2023-05-05T10:28:26.942Z,22.34
2023-05-05T10:30:58.008Z,22.57
2023-05-05T10:33:32.564Z,22.47
2023-05-05T10:36:03.298Z,22.14
2023-05-05T10:38:31.808Z,21.90
2023-05-05T10:41:02.154Z,21.95
2023-05-05T10:43:32.166Z,21.79
2023-05-05T10:46:00.640Z,21.83
2023-05-05T10:48:35.819Z,22.20
2023-05-05T10:51:38.409Z,22.44
2023-05-05T10:54:12.506Z,22.68
2023-05-05T10:56:42.312Z,23.22
2023-05-05T10:59:42.786Z,23.77
2023-05-05T11:02:24.632Z,23.59
2023-05-05T11:05:15.083Z,23.44
2023-05-05T11:07:43.261Z,23.16
2023-05-05T11:10:12.231Z,23.31
2023-05-05T11:13:21.999Z,23.44
2023-05-05T11:15:51.154Z,23.17
2023-05-05T11:18:34.003Z,22.66
2023-05-05T11:21:18.757Z,22.55
2023-05-05T11:23:50.961Z,22.35
2023-05-05T11:26:20.145Z,22.33
2023-05-05T11:29:00.820Z,22.06
2023-05-05T11:31:29.231Z,21.69
2023-05-05T11:33:57.129Z,21.76
2023-05-05T11:36:40.218Z,22.12
2023-05-05T11:39:19.450Z,22.04
2023-05-05T11:42:13.488Z,22.91
2023-05-05T11:44:42.672Z,23.17
2023-05-05T11:47:29.966Z,23.48
2023-05-05T11:49:57.958Z,23.69
2023-05-05T11:52:27.598Z,23.88
2023-05-05T11:55:01.720Z,23.93
2023-05-05T11:57:30.368Z,24.23
2023-05-05T12:00:01.320Z,24.14
2023-05-05T12:02:30.590Z,24.20
2023-05-05T12:05:01.007Z,23.89
2023-05-05T12:07:31.994Z,24.26
2023-05-05T12:09:59.892Z,24.32
2023-05-05T12:12:38.047Z,24.71
2023-05-05T12:15:09.263Z,24.72
2023-05-05T12:17:39.968Z,24.25
2023-05-05T12:20:09.066Z,23.88
2023-05-05T12:22:37.104Z,23.69
2023-05-05T12:25:06.590Z,23.70
2023-05-05T12:27:35.417Z,23.50
2023-05-05T12:30:16.575Z,23.34
2023-05-05T12:32:45.146Z,23.26
2023-05-05T12:35:13.691Z,22.97
2023-05-05T12:37:41.803Z,23.23
2023-05-05T12:40:49.995Z,23.30
2023-05-05T12:43:29.464Z,23.09
2023-05-05T12:46:06.035Z,22.86
2023-05-05T12:48:34.442Z,22.77
2023-05-05T12:51:16.044Z,22.66
2023-05-05T12:53:44.220Z,22.49
2023-05-05T12:56:31.339Z,22.26
2023-05-05T12:58:59.164Z,21.98
2023-05-05T13:01:27.025Z,21.91
2023-05-05T13:04:11.975Z,21.95
2023-05-05T13:06:40.573Z,21.91
2023-05-05T13:09:08.972Z,22.19
2023-05-05T13:11:38.636Z,22.63
2023-05-05T13:14:07.687Z,22.98
2023-05-05T13:16:35.964Z,23.24
2023-05-05T13:19:03.741Z,23.84
2023-05-05T13:21:31.647Z,24.32
2023-05-05T13:24:18.347Z,24.27
2023-05-05T13:26:48.572Z,23.62
2023-05-05T13:29:16.468Z,23.43
2023-05-05T13:31:44.675Z,23.42
2023-05-05T13:34:12.724Z,23.30
2023-05-05T13:36:40.489Z,23.44
2023-05-05T13:39:08.801Z,23.24
2023-05-05T13:41:36.554Z,22.92
2023-05-05T13:44:05.820Z,22.79
2023-05-05T13:46:33.616Z,22.71
2023-05-05T13:49:01.431Z,22.73
2023-05-05T13:51:29.510Z,22.62
2023-05-05T13:53:57.289Z,22.66
2023-05-05T13:56:26.358Z,22.53
2023-05-05T13:58:54.210Z,22.27
2023-05-05T14:01:23.384Z,22.10
2023-05-05T14:03:51.313Z,22.16
2023-05-05T14:06:19.133Z,22.10
2023-05-05T14:08:47.195Z,22.19
2023-05-05T14:11:17.180Z,22.14
2023-05-05T14:13:46.500Z,22.11
2023-05-05T14:16:14.831Z,22.04
2023-05-05T14:18:44.145Z,21.89
2023-05-05T14:21:12.221Z,21.70
2023-05-05T14:23:39.977Z,21.70
2023-05-05T14:26:09.057Z,21.47
2023-05-05T14:28:37.021Z,21.13
2023-05-05T14:31:05.136Z,20.97
2023-05-05T14:33:32.961Z,20.89
2023-05-05T14:36:02.115Z,20.78
2023-05-05T14:38:29.890Z,20.74
2023-05-05T14:40:57.666Z,20.61
2023-05-05T14:43:25.660Z,20.28
2023-05-05T14:45:53.567Z,20.20
2023-05-05T14:48:22.285Z,19.98
2023-05-05T14:50:50.445Z,19.89
2023-05-05T14:53:19.953Z,19.86
2023-05-05T14:55:47.770Z,19.78
2023-05-05T14:58:15.655Z,19.51
2023-05-05T15:00:43.478Z,19.34
2023-05-05T15:03:11.434Z,19.21
2023-05-05T15:05:39.302Z,19.07
2023-05-05T15:08:07.748Z,19.00
2023-05-05T15:10:36.883Z,18.96
2023-05-05T15:13:04.714Z,18.76
2023-05-05T15:15:32.597Z,18.97
2023-05-05T15:18:00.494Z,18.98
2023-05-05T15:20:28.429Z,19.04
2023-05-05T15:22:56.301Z,18.99
2023-05-05T15:25:24.523Z,18.85
2023-05-05T15:27:55.135Z,18.90
2023-05-05T15:30:23.064Z,18.87
2023-05-05T15:32:51.243Z,18.75
2023-05-05T15:35:19.086Z,18.70
2023-05-05T15:37:47.198Z,18.61
2023-05-05T15:40:15.380Z,18.49
2023-05-05T15:42:43.343Z,18.48
2023-05-05T15:45:13.169Z,18.40
2023-05-05T15:47:40.969Z,18.41
2023-05-05T15:50:09.816Z,18.23
2023-05-05T15:52:37.634Z,18.21
2023-05-05T15:55:06.788Z,18.22
2023-05-05T15:57:34.863Z,18.23
2023-05-05T16:00:02.870Z,18.29
2023-05-05T16:02:32.128Z,18.34
2023-05-05T16:05:00.516Z,18.29
2023-05-05T16:07:28.296Z,18.24
2023-05-05T16:09:56.779Z,18.16
2023-05-05T16:12:24.835Z,18.21
2023-05-05T16:14:53.268Z,18.21
2023-05-05T16:17:22.635Z,18.17
2023-05-05T16:19:52.013Z,17.96
2023-05-05T16:22:21.060Z,17.75
2023-05-05T16:24:48.868Z,17.58
2023-05-05T16:27:16.649Z,17.53
2023-05-05T16:29:44.445Z,17.47
2023-05-05T16:32:12.306Z,17.45
2023-05-05T16:34:40.169Z,17.32
2023-05-05T16:37:09.841Z,17.22
2023-05-05T16:39:40.281Z,17.12
2023-05-05T16:42:08.340Z,17.11
2023-05-05T16:44:36.130Z,17.16
2023-05-05T16:47:04.075Z,17.20
2023-05-05T16:49:31.884Z,17.26
2023-05-05T16:51:59.713Z,17.29
2023-05-05T16:54:28.952Z,17.28
2023-05-05T16:56:56.765Z,17.31
2023-05-05T16:59:24.537Z,17.36
2023-05-05T17:01:53.106Z,17.34
2023-05-05T17:04:20.926Z,17.34
2023-05-05T17:06:48.748Z,17.37
2023-05-05T17:09:16.765Z,17.32
2023-05-05T17:11:45.911Z,17.22
2023-05-05T17:14:13.686Z,17.04
2023-05-05T17:16:41.568Z,17.02
2023-05-05T17:19:09.397Z,16.94
2023-05-05T17:21:37.418Z,16.91
2023-05-05T17:24:05.891Z,16.85
2023-05-05T17:26:33.713Z,16.84
2023-05-05T17:29:02.848Z,16.83
2023-05-05T17:31:30.680Z,16.89
2023-05-05T17:33:58.471Z,16.93
2023-05-05T17:36:26.211Z,16.91
2023-05-05T17:38:54.016Z,16.91
2023-05-05T17:41:21.953Z,16.90
2023-05-05T17:43:49.810Z,16.90
2023-05-05T17:46:19.171Z,16.87
2023-05-05T17:48:47.264Z,16.82
2023-05-05T17:51:15.138Z,16.77
2023-05-05T17:53:42.947Z,16.77
2023-05-05T17:56:10.776Z,16.74
2023-05-05T17:58:38.634Z,16.69
2023-05-05T18:01:06.443Z,16.62
2023-05-05T18:03:36.810Z,16.58
2023-05-05T18:06:06.024Z,16.55
2023-05-05T18:08:33.866Z,16.54
2023-05-05T18:11:01.861Z,16.46
2023-05-05T18:13:29.942Z,16.37
2023-05-05T18:16:02.080Z,16.34
2023-05-05T18:18:29.939Z,16.27
2023-05-05T18:20:59.092Z,16.20
2023-05-05T18:23:27.018Z,16.13
2023-05-05T18:25:54.780Z,16.10
2023-05-05T18:28:22.596Z,16.06
2023-05-05T18:30:50.624Z,16.03
2023-05-05T18:33:18.462Z,15.99
2023-05-05T18:35:46.469Z,15.98
2023-05-05T18:38:15.705Z,15.93
2023-05-05T18:40:43.555Z,15.90
2023-05-05T18:43:11.347Z,15.89
2023-05-05T18:45:39.175Z,15.88
2023-05-05T18:48:07.397Z,15.88
2023-05-05T18:50:35.246Z,15.87
2023-05-05T18:53:03.030Z,15.86
2023-05-05T18:55:32.292Z,15.85
2023-05-05T18:58:00.158Z,15.85
2023-05-05T19:00:28.034Z,15.84
2023-05-05T19:02:55.966Z,15.81
2023-05-05T19:05:24.169Z,15.80
2023-05-05T19:07:51.975Z,15.79
2023-05-05T19:10:19.916Z,15.79
2023-05-05T19:12:49.126Z,15.78
2023-05-05T19:15:18.300Z,15.77
2023-05-05T19:17:47.446Z,15.75
2023-05-05T19:20:15.390Z,15.73
2023-05-05T19:22:43.244Z,15.69
2023-05-05T19:25:11.583Z,15.70
2023-05-05T19:27:39.596Z,15.64
2023-05-05T19:30:10.203Z,15.61
2023-05-05T19:32:38.037Z,15.54
2023-05-05T19:35:06.879Z,15.50
2023-05-05T19:37:34.731Z,15.45
2023-05-05T19:40:02.557Z,15.42
2023-05-05T19:42:30.408Z,15.34
2023-05-05T19:44:58.683Z,15.33
2023-05-05T19:47:28.473Z,15.21
2023-05-05T19:49:56.287Z,15.24
2023-05-05T19:52:24.975Z,15.19
2023-05-05T19:54:53.298Z,15.15
2023-05-05T19:57:21.427Z,15.06
2023-05-05T19:59:49.832Z,15.05
2023-05-05T20:02:18.700Z,15.01
2023-05-05T20:04:49.233Z,14.95
2023-05-05T20:07:18.200Z,14.90
2023-05-05T20:09:49.813Z,14.84
2023-05-05T20:12:19.817Z,14.80
2023-05-05T20:14:47.911Z,14.77
2023-05-05T20:17:20.368Z,14.71
2023-05-05T20:19:55.054Z,14.75
2023-05-05T20:22:26.612Z,14.70
2023-05-05T20:24:54.508Z,14.68
2023-05-05T20:27:22.811Z,14.66
2023-05-05T20:29:50.896Z,14.72
2023-05-05T20:32:20.720Z,14.74
2023-05-05T20:34:50.067Z,14.73
2023-05-05T20:37:17.926Z,14.73
2023-05-05T20:39:47.333Z,14.68
2023-05-05T20:42:15.490Z,14.69
2023-05-05T20:44:43.314Z,14.72
2023-05-05T20:47:11.514Z,14.71
2023-05-05T20:49:39.711Z,14.65
2023-05-05T20:52:09.109Z,14.58
2023-05-05T20:54:37.092Z,14.55
2023-05-05T20:57:06.983Z,14.52
2023-05-05T20:59:35.224Z,14.48
2023-05-05T21:02:03.410Z,14.46
2023-05-05T21:04:31.276Z,14.46
2023-05-05T21:06:59.130Z,14.43
2023-05-05T21:09:28.368Z,14.43
2023-05-05T21:11:56.188Z,14.40
2023-05-05T21:14:24.253Z,14.38
2023-05-05T21:16:52.028Z,14.34
2023-05-05T21:19:19.944Z,14.34
2023-05-05T21:21:47.735Z,14.32
2023-05-05T21:24:15.637Z,14.35
2023-05-05T21:26:45.063Z,14.26
2023-05-05T21:29:13.210Z,14.31
2023-05-05T21:31:41.011Z,14.42
2023-05-05T21:34:08.848Z,14.42
2023-05-05T21:36:37.179Z,14.40
2023-05-05T21:39:05.200Z,14.40
2023-05-05T21:41:33.023Z,14.36
2023-05-05T21:44:02.421Z,14.29
2023-05-05T21:46:30.245Z,14.25
2023-05-05T21:48:58.272Z,14.16
2023-05-05T21:51:26.592Z,14.12
2023-05-05T21:53:54.410Z,14.09
2023-05-05T21:56:22.211Z,14.08
2023-05-05T21:58:49.995Z,14.04
2023-05-05T22:01:19.154Z,14.00
2023-05-05T22:03:47.505Z,13.97
2023-05-05T22:06:17.368Z,13.98
2023-05-05T22:08:45.350Z,13.95
2023-05-05T22:11:13.365Z,13.91
2023-05-05T22:13:41.246Z,13.88
2023-05-05T22:16:10.080Z,13.88
2023-05-05T22:18:39.301Z,13.88
2023-05-05T22:21:07.421Z,13.83
2023-05-05T22:23:35.347Z,13.82
2023-05-05T22:26:03.237Z,13.81
2023-05-05T22:28:31.094Z,13.80
2023-05-05T22:30:58.953Z,13.77
2023-05-05T22:33:27.245Z,13.71
2023-05-05T22:35:56.419Z,13.70
2023-05-05T22:38:24.256Z,13.65
2023-05-05T22:40:52.128Z,13.58
2023-05-05T22:43:19.967Z,13.49
2023-05-05T22:45:47.825Z,13.45
2023-05-05T22:48:15.621Z,13.39
2023-05-05T22:50:43.520Z,13.35
2023-05-05T22:53:12.706Z,13.30
2023-05-05T22:55:40.473Z,13.27
2023-05-05T22:58:08.260Z,13.25
2023-05-05T23:00:36.262Z,13.24
2023-05-05T23:03:04.087Z,13.17
2023-05-05T23:05:32.025Z,13.07
2023-05-05T23:08:01.338Z,13.10
2023-05-05T23:10:31.083Z,13.03
2023-05-05T23:12:58.906Z,13.02
2023-05-05T23:15:26.717Z,13.00
2023-05-05T23:17:54.547Z,12.97
2023-05-05T23:20:22.363Z,12.93
2023-05-05T23:22:50.927Z,12.89
2023-05-05T23:25:18.767Z,12.84
2023-05-05T23:27:48.039Z,12.81
2023-05-05T23:30:16.323Z,12.75
2023-05-05T23:32:45.089Z,12.76
2023-05-05T23:35:13.018Z,12.78
2023-05-05T23:37:40.765Z,12.78
2023-05-05T23:40:09.857Z,12.76
2023-05-05T23:42:37.653Z,12.76
2023-05-05T23:45:08.024Z,12.74
2023-05-05T23:47:36.057Z,12.76
2023-05-05T23:50:04.092Z,12.73
2023-05-05T23:52:31.860Z,12.74
2023-05-05T23:54:59.657Z,12.78
2023-05-05T23:57:27.405Z,12.78
2023-05-05T23:59:55.189Z,12.74
